Time,TemperatureF,DewpointF,PressureIn,WindDirection,WindDirectionDegrees,WindSpeedMPH,WindSpeedGustMPH,Humidity,HourlyPrecipIn,Conditions,Clouds,dailyrainin,SoftwareType,DateUTC
2013-03-08 00:00:00,28.8,25.7,30.33,North,355,1.0,2.0,88,0.00,,OVC055,0.00,VWS V14.01,2013-03-08 05:00:00,
2013-03-08 00:01:00,28.8,25.7,30.33,North,355,0.0,2.0,88,0.00,,OVC055,0.00,VWS V14.01,2013-03-08 05:01:00,
2013-03-08 00:06:00,28.8,25.7,30.33,North,355,0.0,2.0,88,0.00,,OVC055,0.00,VWS V14.01,2013-03-08 05:06:00,
2013-03-08 00:11:00,28.7,25.6,30.32,North,355,0.0,3.0,88,0.00,,OVC055,0.00,VWS V14.01,2013-03-08 05:11:00,
2013-03-08 00:16:00,28.6,25.5,30.32,North,355,0.0,3.0,88,0.00,,OVC055,0.00,VWS V14.01,2013-03-08 05:16:00,
2013-03-08 00:21:00,28.5,25.4,30.32,North,355,2.0,3.0,88,0.00,,OVC055,0.00,VWS V14.01,2013-03-08 05:21:00,
2013-03-08 00:26:00,28.4,25.6,30.32,North,355,1.0,3.0,89,0.00,,OVC055,0.00,VWS V14.01,2013-03-08 05:26:00,
2013-03-08 00:30:00,27.3,24.8,30.32,North,355,0.0,2.0,90,0.00,,OVC055,0.00,VWS V14.01,2013-03-08 05:30:00,
2013-03-08 00:31:00,28.2,25.4,30.32,North,355,0.0,2.0,89,0.00,,OVC055,0.00,VWS V14.01,2013-03-08 05:31:00,
2013-03-08 00:36:00,28.0,25.2,30.32,North,355,2.0,2.0,89,0.00,,OVC055,0.00,VWS V14.01,2013-03-08 05:36:00,
2013-03-08 00:41:00,28.0,25.2,30.32,North,355,0.0,2.0,89,0.00,,OVC055,0.00,VWS V14.01,2013-03-08 05:41:00,
2013-03-08 00:46:00,28.0,25.2,30.32,North,355,1.0,2.0,89,0.00,,OVC055,0.00,VWS V14.01,2013-03-08 05:46:00,
2013-03-08 00:51:00,28.1,25.3,30.32,North,355,1.0,2.0,89,0.00,,OVC055,0.00,VWS V14.01,2013-03-08 05:51:00,
2013-03-08 00:56:00,28.1,25.3,30.32,North,355,1.0,3.0,89,0.00,,OVC055,0.00,VWS V14.01,2013-03-08 05:56:00,
2013-03-08 01:00:00,26.4,24.4,30.33,North,355,0.0,0.0,92,0.00,,OVC055,0.00,VWS V14.01,2013-03-08 06:00:00,
2013-03-08 01:01:00,28.1,25.3,30.32,North,355,1.0,2.0,89,0.00,,OVC055,0.00,VWS V14.01,2013-03-08 06:01:00,
2013-03-08 01:06:00,28.0,25.2,30.32,North,355,0.0,2.0,89,0.00,,OVC055,0.00,VWS V14.01,2013-03-08 06:06:00,
2013-03-08 01:11:00,27.8,25.0,30.32,North,355,0.0,2.0,89,0.00,,OVC055,0.00,VWS V14.01,2013-03-08 06:11:00,
2013-03-08 01:16:00,27.6,25.1,30.32,North,355,0.0,2.0,90,0.00,,OVC055,0.00,VWS V14.01,2013-03-08 06:16:00,
2013-03-08 01:21:00,27.5,25.0,30.32,North,355,0.0,2.0,90,0.00,,OVC055,0.00,VWS V14.01,2013-03-08 06:21:00,
2013-03-08 01:26:00,27.4,24.9,30.32,North,355,0.0,2.0,90,0.00,,OVC055,0.00,VWS V14.01,2013-03-08 06:26:00,
2013-03-08 01:30:00,25.7,24.2,30.33,North,355,0.0,0.0,94,0.00,,OVC055,0.00,VWS V14.01,2013-03-08 06:30:00,
2013-03-08 01:31:00,27.2,24.7,30.32,North,355,0.0,0.0,90,0.00,,OVC055,0.00,VWS V14.01,2013-03-08 06:31:00,
2013-03-08 01:36:00,27.0,24.7,30.33,North,355,0.0,0.0,91,0.00,,OVC055,0.00,VWS V14.01,2013-03-08 06:36:00,
2013-03-08 01:41:00,26.8,24.5,30.33,North,355,0.0,0.0,91,0.00,,OVC055,0.00,VWS V14.01,2013-03-08 06:41:00,
2013-03-08 01:46:00,26.8,24.8,30.33,North,355,0.0,0.0,92,0.00,,OVC055,0.00,VWS V14.01,2013-03-08 06:46:00,
2013-03-08 01:51:00,26.6,24.6,30.33,North,355,0.0,0.0,92,0.00,,OVC055,0.00,VWS V14.01,2013-03-08 06:51:00,
2013-03-08 01:56:00,26.5,24.5,30.33,North,355,0.0,0.0,92,0.00,,OVC055,0.00,VWS V14.01,2013-03-08 06:56:00,
2013-03-08 02:00:00,25.3,23.8,30.32,North,355,0.0,1.0,94,0.00,,OVC055,0.00,VWS V14.01,2013-03-08 07:00:00,
2013-03-08 02:01:00,26.4,24.4,30.33,North,355,0.0,0.0,92,0.00,,OVC055,0.00,VWS V14.01,2013-03-08 07:01:00,
2013-03-08 02:06:00,26.1,24.1,30.33,North,355,0.0,0.0,92,0.00,,OVC055,0.00,VWS V14.01,2013-03-08 07:06:00,
2013-03-08 02:11:00,26.0,24.3,30.33,North,355,0.0,0.0,93,0.00,,OVC055,0.00,VWS V14.01,2013-03-08 07:11:00,
2013-03-08 02:16:00,25.9,24.2,30.32,North,355,0.0,0.0,93,0.00,,OVC055,0.00,VWS V14.01,2013-03-08 07:16:00,
2013-03-08 02:21:00,25.8,24.1,30.32,North,355,0.0,0.0,93,0.00,,OVC055,0.00,VWS V14.01,2013-03-08 07:21:00,
2013-03-08 02:26:00,25.7,24.0,30.32,North,355,0.0,0.0,93,0.00,,OVC055,0.00,VWS V14.01,2013-03-08 07:26:00,
2013-03-08 02:30:00,24.8,23.6,30.32,North,355,0.0,1.0,95,0.00,,OVC055,0.00,VWS V14.01,2013-03-08 07:30:00,
2013-03-08 02:31:00,25.6,24.1,30.33,North,355,0.0,1.0,94,0.00,,OVC055,0.00,VWS V14.01,2013-03-08 07:31:00,
2013-03-08 02:36:00,25.6,24.1,30.32,North,355,0.0,1.0,94,0.00,,OVC055,0.00,VWS V14.01,2013-03-08 07:36:00,
2013-03-08 02:41:00,25.6,24.1,30.32,North,355,0.0,1.0,94,0.00,,OVC055,0.00,VWS V14.01,2013-03-08 07:41:00,
2013-03-08 02:46:00,25.6,24.1,30.32,North,355,0.0,1.0,94,0.00,,OVC055,0.00,VWS V14.01,2013-03-08 07:46:00,
2013-03-08 02:51:00,25.5,24.0,30.32,North,355,0.0,1.0,94,0.00,,OVC055,0.00,VWS V14.01,2013-03-08 07:51:00,
2013-03-08 02:56:00,25.4,23.9,30.32,North,355,0.0,1.0,94,0.00,,OVC055,0.00,VWS V14.01,2013-03-08 07:56:00,
2013-03-08 03:00:00,24.2,23.0,30.33,North,355,0.0,1.0,95,0.00,,OVC055,0.00,VWS V14.01,2013-03-08 08:00:00,
2013-03-08 03:01:00,25.2,23.7,30.32,North,355,0.0,0.0,94,0.00,,OVC055,0.00,VWS V14.01,2013-03-08 08:01:00,
2013-03-08 03:06:00,25.1,23.6,30.32,North,355,0.0,0.0,94,0.00,,OVC055,0.00,VWS V14.01,2013-03-08 08:06:00,
2013-03-08 03:11:00,24.9,23.4,30.32,North,355,0.0,1.0,94,0.00,,OVC055,0.00,VWS V14.01,2013-03-08 08:11:00,
2013-03-08 03:16:00,24.9,23.7,30.32,North,355,0.0,1.0,95,0.00,,OVC055,0.00,VWS V14.01,2013-03-08 08:16:00,
2013-03-08 03:21:00,24.8,23.6,30.32,North,355,0.0,1.0,95,0.00,,OVC055,0.00,VWS V14.01,2013-03-08 08:21:00,
2013-03-08 03:26:00,24.8,23.6,30.32,North,355,0.0,1.0,95,0.00,,OVC055,0.00,VWS V14.01,2013-03-08 08:26:00,
2013-03-08 03:30:00,23.8,22.6,30.33,North,355,0.0,0.0,95,0.00,,OVC055,0.00,VWS V14.01,2013-03-08 08:30:00,
2013-03-08 03:31:00,24.8,23.6,30.32,North,355,0.0,0.0,95,0.00,,OVC055,0.00,VWS V14.01,2013-03-08 08:31:00,
2013-03-08 03:36:00,24.7,23.5,30.32,North,355,0.0,0.0,95,0.00,,OVC055,0.00,VWS V14.01,2013-03-08 08:36:00,
2013-03-08 03:41:00,24.6,23.4,30.32,North,355,0.0,0.0,95,0.00,,OVC055,0.00,VWS V14.01,2013-03-08 08:41:00,
2013-03-08 03:46:00,24.4,23.2,30.32,North,355,0.0,0.0,95,0.00,,OVC055,0.00,VWS V14.01,2013-03-08 08:46:00,
2013-03-08 03:51:00,24.3,23.1,30.32,North,355,0.0,0.0,95,0.00,,OVC055,0.00,VWS V14.01,2013-03-08 08:51:00,
2013-03-08 03:56:00,24.3,23.1,30.32,North,355,0.0,1.0,95,0.00,,OVC055,0.00,VWS V14.01,2013-03-08 08:56:00,
2013-03-08 04:00:00,23.6,22.6,30.33,North,355,0.0,0.0,96,0.00,,OVC055,0.00,VWS V14.01,2013-03-08 09:00:00,
2013-03-08 04:01:00,24.2,23.0,30.33,North,355,0.0,0.0,95,0.00,,OVC055,0.00,VWS V14.01,2013-03-08 09:01:00,
2013-03-08 04:06:00,24.2,23.0,30.33,North,355,0.0,0.0,95,0.00,,OVC055,0.00,VWS V14.01,2013-03-08 09:06:00,
2013-03-08 04:11:00,24.3,23.3,30.33,North,355,0.0,0.0,96,0.00,,OVC055,0.00,VWS V14.01,2013-03-08 09:11:00,
2013-03-08 04:16:00,24.3,23.3,30.33,North,355,0.0,0.0,96,0.00,,OVC055,0.00,VWS V14.01,2013-03-08 09:16:00,
2013-03-08 04:21:00,24.1,22.9,30.33,North,355,0.0,0.0,95,0.00,,OVC055,0.00,VWS V14.01,2013-03-08 09:21:00,
2013-03-08 04:26:00,23.9,22.7,30.33,North,355,0.0,0.0,95,0.00,,OVC055,0.00,VWS V14.01,2013-03-08 09:26:00,
2013-03-08 04:30:00,23.0,22.0,30.34,North,355,0.0,0.0,96,0.00,,OVC055,0.00,VWS V14.01,2013-03-08 09:30:00,
2013-03-08 04:31:00,23.7,22.5,30.33,North,355,0.0,0.0,95,0.00,,OVC055,0.00,VWS V14.01,2013-03-08 09:31:00,
2013-03-08 04:36:00,23.6,22.4,30.33,North,355,0.0,0.0,95,0.00,,OVC055,0.00,VWS V14.01,2013-03-08 09:36:00,
2013-03-08 04:41:00,23.6,22.6,30.33,North,355,0.0,0.0,96,0.00,,OVC055,0.00,VWS V14.01,2013-03-08 09:41:00,
2013-03-08 04:46:00,23.6,22.6,30.33,North,355,0.0,0.0,96,0.00,,OVC055,0.00,VWS V14.01,2013-03-08 09:46:00,
2013-03-08 04:51:00,23.5,22.5,30.33,North,355,0.0,0.0,96,0.00,,OVC055,0.00,VWS V14.01,2013-03-08 09:51:00,
2013-03-08 04:56:00,23.6,22.6,30.33,North,355,0.0,0.0,96,0.00,,OVC055,0.00,VWS V14.01,2013-03-08 09:56:00,
2013-03-08 05:00:00,22.8,21.8,30.34,North,355,0.0,0.0,96,0.00,,OVC055,0.00,VWS V14.01,2013-03-08 10:00:00,
2013-03-08 05:01:00,23.6,22.6,30.33,North,355,0.0,0.0,96,0.00,,OVC055,0.00,VWS V14.01,2013-03-08 10:01:00,
2013-03-08 05:06:00,23.5,22.5,30.33,North,355,0.0,0.0,96,0.00,,OVC055,0.00,VWS V14.01,2013-03-08 10:06:00,
2013-03-08 05:11:00,23.4,22.4,30.34,North,355,0.0,0.0,96,0.00,,OVC055,0.00,VWS V14.01,2013-03-08 10:11:00,
2013-03-08 05:16:00,23.3,22.1,30.34,North,355,0.0,0.0,95,0.00,,OVC055,0.00,VWS V14.01,2013-03-08 10:16:00,
2013-03-08 05:21:00,23.2,22.2,30.34,North,355,0.0,0.0,96,0.00,,OVC055,0.00,VWS V14.01,2013-03-08 10:21:00,
2013-03-08 05:26:00,23.1,22.1,30.34,North,355,0.0,0.0,96,0.00,,OVC055,0.00,VWS V14.01,2013-03-08 10:26:00,
2013-03-08 05:30:00,22.7,21.7,30.36,North,355,0.0,0.0,96,0.00,,OVC055,0.00,VWS V14.01,2013-03-08 10:30:00,
2013-03-08 05:31:00,23.0,22.0,30.34,North,355,0.0,0.0,96,0.00,,OVC055,0.00,VWS V14.01,2013-03-08 10:31:00,
2013-03-08 05:36:00,22.9,21.9,30.34,North,355,0.0,0.0,96,0.00,,OVC055,0.00,VWS V14.01,2013-03-08 10:36:00,
2013-03-08 05:41:00,22.9,21.9,30.34,North,355,0.0,0.0,96,0.00,,OVC055,0.00,VWS V14.01,2013-03-08 10:41:00,
2013-03-08 05:46:00,22.8,21.8,30.34,North,355,0.0,0.0,96,0.00,,OVC055,0.00,VWS V14.01,2013-03-08 10:46:00,
2013-03-08 05:51:00,22.8,21.8,30.34,North,355,0.0,0.0,96,0.00,,OVC055,0.00,VWS V14.01,2013-03-08 10:51:00,
2013-03-08 05:56:00,22.8,21.8,30.34,North,355,0.0,0.0,96,0.00,,OVC055,0.00,VWS V14.01,2013-03-08 10:56:00,
2013-03-08 06:00:00,22.2,21.0,30.36,North,355,0.0,0.0,95,0.00,,OVC055,0.00,VWS V14.01,2013-03-08 11:00:00,
2013-03-08 06:01:00,22.8,21.8,30.35,North,355,0.0,0.0,96,0.00,,OVC055,0.00,VWS V14.01,2013-03-08 11:01:00,
2013-03-08 06:06:00,22.7,21.7,30.35,North,355,0.0,0.0,96,0.00,,OVC055,0.00,VWS V14.01,2013-03-08 11:06:00,
2013-03-08 06:11:00,22.7,21.7,30.35,North,355,0.0,0.0,96,0.00,,OVC055,0.00,VWS V14.01,2013-03-08 11:11:00,
2013-03-08 06:16:00,22.6,21.6,30.35,North,355,0.0,0.0,96,0.00,,OVC055,0.00,VWS V14.01,2013-03-08 11:16:00,
2013-03-08 06:21:00,22.7,21.7,30.36,North,355,0.0,0.0,96,0.00,,OVC055,0.00,VWS V14.01,2013-03-08 11:21:00,
2013-03-08 06:26:00,22.7,21.7,30.36,North,355,0.0,0.0,96,0.00,,OVC055,0.00,VWS V14.01,2013-03-08 11:26:00,
2013-03-08 06:30:00,22.4,21.4,30.36,North,355,0.0,0.0,96,0.00,,OVC055,0.00,VWS V14.01,2013-03-08 11:30:00,
2013-03-08 06:31:00,22.7,21.7,30.36,North,355,0.0,0.0,96,0.00,,OVC055,0.00,VWS V14.01,2013-03-08 11:31:00,
2013-03-08 06:36:00,22.7,21.7,30.36,North,355,0.0,0.0,96,0.00,,OVC055,0.00,VWS V14.01,2013-03-08 11:36:00,
2013-03-08 06:41:00,22.7,21.7,30.36,North,355,0.0,0.0,96,0.00,,OVC055,0.00,VWS V14.01,2013-03-08 11:41:00,
2013-03-08 06:45:00,22.6,21.6,30.36,North,355,0.0,0.0,96,0.00,,OVC055,0.00,VWS V14.01,2013-03-08 11:45:00,
2013-03-08 06:50:00,22.4,21.2,30.36,North,355,0.0,0.0,95,0.00,,OVC055,0.00,VWS V14.01,2013-03-08 11:50:00,
2013-03-08 06:55:00,22.2,21.0,30.36,North,355,0.0,0.0,95,0.00,,OVC055,0.00,VWS V14.01,2013-03-08 11:55:00,
2013-03-08 07:00:00,22.2,21.0,30.36,North,355,0.0,0.0,95,0.00,,OVC055,0.00,VWS V14.01,2013-03-08 12:00:00,
2013-03-08 07:05:00,22.1,21.1,30.36,North,355,0.0,0.0,96,0.00,,OVC055,0.00,VWS V14.01,2013-03-08 12:05:00,
2013-03-08 07:10:00,22.1,21.1,30.36,North,355,0.0,0.0,96,0.00,,OVC055,0.00,VWS V14.01,2013-03-08 12:10:00,
2013-03-08 07:15:00,22.1,21.1,30.36,North,355,0.0,0.0,96,0.00,,OVC055,0.00,VWS V14.01,2013-03-08 12:15:00,
2013-03-08 07:20:00,22.2,21.2,30.36,North,355,0.0,0.0,96,0.00,,OVC055,0.00,VWS V14.01,2013-03-08 12:20:00,
2013-03-08 07:25:00,22.2,21.2,30.36,North,355,0.0,0.0,96,0.00,,OVC055,0.00,VWS V14.01,2013-03-08 12:25:00,
2013-03-08 07:30:00,22.4,21.4,30.36,North,355,0.0,0.0,96,0.00,,OVC055,0.00,VWS V14.01,2013-03-08 12:30:00,
2013-03-08 07:35:00,22.5,21.5,30.36,North,355,0.0,0.0,96,0.00,,OVC055,0.00,VWS V14.01,2013-03-08 12:35:00,
2013-03-08 07:40:00,22.7,21.7,30.37,North,355,0.0,0.0,96,0.00,,OVC055,0.00,VWS V14.01,2013-03-08 12:40:00,
2013-03-08 07:45:00,23.1,22.4,30.38,North,355,0.0,1.0,97,0.00,,OVC055,0.00,VWS V14.01,2013-03-08 12:45:00,
2013-03-08 07:50:00,23.5,22.8,30.38,North,355,0.0,1.0,97,0.00,,OVC055,0.00,VWS V14.01,2013-03-08 12:50:00,
2013-03-08 07:55:00,23.9,23.2,30.38,North,355,0.0,1.0,97,0.00,,OVC055,0.00,VWS V14.01,2013-03-08 12:55:00,
2013-03-08 08:00:00,24.3,23.6,30.38,North,360,0.0,1.0,97,0.00,,OVC055,0.00,VWS V14.01,2013-03-08 13:00:00,
2013-03-08 08:05:00,24.5,23.8,30.38,North,360,0.0,1.0,97,0.00,,OVC055,0.00,VWS V14.01,2013-03-08 13:05:00,
2013-03-08 08:10:00,24.7,23.7,30.38,North,360,0.0,1.0,96,0.00,,OVC055,0.00,VWS V14.01,2013-03-08 13:10:00,
2013-03-08 08:15:00,24.9,24.2,30.38,North,360,0.0,1.0,97,0.00,,OVC055,0.00,VWS V14.01,2013-03-08 13:15:00,
2013-03-08 08:20:00,25.2,24.2,30.38,North,360,0.0,1.0,96,0.00,,OVC055,0.00,VWS V14.01,2013-03-08 13:20:00,
2013-03-08 08:25:00,25.5,24.5,30.38,North,360,0.0,1.0,96,0.00,,OVC055,0.00,VWS V14.01,2013-03-08 13:25:00,
2013-03-08 08:30:00,26.1,25.4,30.38,North,355,0.0,2.0,97,0.00,,OVC055,0.00,VWS V14.01,2013-03-08 13:30:00,
2013-03-08 08:35:00,26.8,25.8,30.38,North,355,1.0,2.0,96,0.00,,OVC055,0.00,VWS V14.01,2013-03-08 13:35:00,
2013-03-08 08:40:00,27.4,26.4,30.38,North,355,0.0,2.0,96,0.00,,OVC055,0.00,VWS V14.01,2013-03-08 13:40:00,
2013-03-08 08:45:00,27.9,26.4,30.39,North,355,0.0,2.0,94,0.00,,OVC055,0.00,VWS V14.01,2013-03-08 13:45:00,
2013-03-08 08:50:00,28.4,26.9,30.39,North,355,0.0,2.0,94,0.00,,OVC055,0.00,VWS V14.01,2013-03-08 13:50:00,
2013-03-08 08:55:00,28.9,26.6,30.39,North,355,0.0,2.0,91,0.01,,OVC055,0.01,VWS V14.01,2013-03-08 13:55:00,
2013-03-08 09:00:00,29.3,26.7,30.39,North,355,0.0,1.0,90,0.01,,OVC055,0.01,VWS V14.01,2013-03-08 14:00:00,
2013-03-08 09:05:00,30.1,27.3,30.39,North,355,0.0,1.0,89,0.01,,OVC055,0.01,VWS V14.01,2013-03-08 14:05:00,
2013-03-08 09:10:00,30.8,27.1,30.38,NNE,22,0.0,2.0,86,0.01,,OVC055,0.01,VWS V14.01,2013-03-08 14:10:00,
2013-03-08 09:15:00,31.4,27.4,30.38,NNE,22,0.0,2.0,85,0.01,,OVC055,0.01,VWS V14.01,2013-03-08 14:15:00,
2013-03-08 09:20:00,32.0,28.0,30.38,NNE,22,0.0,2.0,85,0.01,,OVC055,0.01,VWS V14.01,2013-03-08 14:20:00,
2013-03-08 09:25:00,32.7,27.8,30.38,NNE,22,1.0,2.0,82,0.01,,OVC055,0.01,VWS V14.01,2013-03-08 14:25:00,
2013-03-08 09:30:00,33.3,28.7,30.38,North,355,2.0,3.0,83,0.01,,OVC055,0.01,VWS V14.01,2013-03-08 14:30:00,
2013-03-08 09:35:00,33.7,28.2,30.38,North,5,2.0,3.0,80,0.01,,OVC055,0.01,VWS V14.01,2013-03-08 14:35:00,
2013-03-08 09:40:00,34.1,28.3,30.38,NNE,26,1.0,3.0,79,0.01,,OVC055,0.01,VWS V14.01,2013-03-08 14:40:00,
2013-03-08 09:45:00,34.7,28.5,30.38,North,11,2.0,3.0,78,0.01,,OVC055,0.01,VWS V14.01,2013-03-08 14:45:00,
2013-03-08 09:50:00,35.5,29.3,30.38,North,5,4.0,4.0,78,0.01,,OVC055,0.01,VWS V14.01,2013-03-08 14:50:00,
2013-03-08 09:55:00,35.7,28.9,30.38,NNE,32,2.0,5.0,76,0.01,,OVC055,0.01,VWS V14.01,2013-03-08 14:55:00,
2013-03-08 10:00:00,36.2,28.7,30.38,NNE,31,3.0,6.0,74,0.00,,OVC055,0.01,VWS V14.01,2013-03-08 15:00:00,
2013-03-08 10:05:00,36.8,28.6,30.38,NNW,346,2.0,6.0,72,0.00,,OVC055,0.01,VWS V14.01,2013-03-08 15:05:00,
2013-03-08 10:10:00,37.6,28.4,30.38,NNE,30,3.0,7.0,69,0.00,,OVC055,0.01,VWS V14.01,2013-03-08 15:10:00,
2013-03-08 10:15:00,38.1,28.1,30.37,NNE,32,2.0,7.0,67,0.00,,OVC055,0.01,VWS V14.01,2013-03-08 15:15:00,
2013-03-08 10:20:00,38.8,28.4,30.37,North,9,2.0,7.0,66,0.00,,OVC055,0.01,VWS V14.01,2013-03-08 15:20:00,
2013-03-08 10:25:00,39.7,28.5,30.37,NNW,347,4.0,7.0,64,0.00,,OVC055,0.01,VWS V14.01,2013-03-08 15:25:00,
2013-03-08 10:30:00,40.4,28.4,30.37,North,351,7.0,7.0,62,0.00,,OVC055,0.01,VWS V14.01,2013-03-08 15:30:00,
2013-03-08 10:35:00,41.3,27.6,30.37,NW,323,4.0,7.0,58,0.00,,OVC055,0.01,VWS V14.01,2013-03-08 15:35:00,
2013-03-08 10:40:00,42.4,28.3,30.36,North,9,2.0,7.0,57,0.00,,OVC055,0.01,VWS V14.01,2013-03-08 15:40:00,
2013-03-08 10:45:00,43.4,28.3,30.36,NE,51,3.0,7.0,55,0.00,,OVC055,0.01,VWS V14.01,2013-03-08 15:45:00,
2013-03-08 10:50:00,44.2,24.8,30.36,NE,39,4.0,7.0,46,0.00,,OVC055,0.01,VWS V14.01,2013-03-08 15:50:00,
2013-03-08 10:55:00,44.7,24.7,30.36,NE,34,4.0,8.0,45,0.00,,OVC055,0.01,VWS V14.01,2013-03-08 15:55:00,
2013-03-08 11:00:00,45.3,22.4,30.36,NNE,26,4.0,6.0,40,0.00,,OVC055,0.01,VWS V14.01,2013-03-08 16:00:00,
2013-03-08 11:05:00,45.6,21.5,30.36,NNE,27,1.0,6.0,38,0.00,,OVC055,0.01,VWS V14.01,2013-03-08 16:05:00,
2013-03-08 11:10:00,46.3,23.3,30.35,NE,51,2.0,7.0,40,0.00,,OVC055,0.01,VWS V14.01,2013-03-08 16:10:00,
2013-03-08 11:15:00,46.7,20.5,30.35,NE,43,4.0,9.0,35,0.00,,OVC055,0.01,VWS V14.01,2013-03-08 16:15:00,
2013-03-08 11:20:00,46.7,22.5,30.35,NNE,22,8.0,9.0,38,0.00,,OVC055,0.01,VWS V14.01,2013-03-08 16:20:00,
2013-03-08 11:25:00,47.0,24.5,30.35,NNE,30,7.0,9.0,41,0.00,,OVC055,0.01,VWS V14.01,2013-03-08 16:25:00,
2013-03-08 11:30:00,47.5,23.8,30.35,East,101,3.0,3.0,39,0.00,,OVC055,0.01,VWS V14.01,2013-03-08 16:30:00,
2013-03-08 11:35:00,47.9,20.9,30.35,South,187,2.0,5.0,34,0.00,,OVC055,0.01,VWS V14.01,2013-03-08 16:35:00,
2013-03-08 11:40:00,48.8,22.4,30.34,NNE,19,4.0,6.0,35,0.00,,OVC055,0.01,VWS V14.01,2013-03-08 16:40:00,
2013-03-08 11:45:00,49.0,22.6,30.35,ENE,57,4.0,7.0,35,0.00,,OVC055,0.01,VWS V14.01,2013-03-08 16:45:00,
2013-03-08 11:50:00,48.5,20.0,30.34,NE,46,2.0,7.0,32,0.00,,OVC055,0.01,VWS V14.01,2013-03-08 16:50:00,
2013-03-08 11:55:00,48.9,22.5,30.34,NNE,15,2.0,7.0,35,0.00,,OVC055,0.01,VWS V14.01,2013-03-08 16:55:00,
2013-03-08 12:00:00,49.2,19.9,30.34,NE,51,2.0,3.0,31,0.00,,OVC055,0.01,VWS V14.01,2013-03-08 17:00:00,
2013-03-08 12:05:00,49.5,22.3,30.34,NE,46,3.0,4.0,34,0.00,,OVC055,0.01,VWS V14.01,2013-03-08 17:05:00,
2013-03-08 12:10:00,49.8,21.9,30.34,ESE,107,1.0,7.0,33,0.00,,OVC055,0.01,VWS V14.01,2013-03-08 17:10:00,
2013-03-08 12:15:00,50.6,22.6,30.34,NE,39,3.0,7.0,33,0.00,,OVC055,0.01,VWS V14.01,2013-03-08 17:15:00,
2013-03-08 12:20:00,51.1,23.0,30.34,East,82,1.0,7.0,33,0.00,,OVC055,0.01,VWS V14.01,2013-03-08 17:20:00,
2013-03-08 12:25:00,51.9,23.7,30.33,ESE,103,2.0,7.0,33,0.00,,OVC055,0.01,VWS V14.01,2013-03-08 17:25:00,
2013-03-08 12:30:00,52.7,25.8,30.33,East,101,0.0,1.0,35,0.00,,OVC055,0.01,VWS V14.01,2013-03-08 17:30:00,
2013-03-08 12:35:00,53.6,23.7,30.33,SSW,194,1.0,4.0,31,0.00,,OVC055,0.01,VWS V14.01,2013-03-08 17:35:00,
2013-03-08 12:40:00,53.6,23.7,30.33,NE,42,2.0,4.0,31,0.00,,OVC055,0.01,VWS V14.01,2013-03-08 17:40:00,
2013-03-08 12:45:00,53.6,23.7,30.33,ENE,76,2.0,4.0,31,0.00,,OVC055,0.01,VWS V14.01,2013-03-08 17:45:00,
2013-03-08 12:50:00,54.1,25.6,30.33,ENE,57,2.0,4.0,33,0.00,,OVC055,0.01,VWS V14.01,2013-03-08 17:50:00,
2013-03-08 12:55:00,54.1,22.6,30.33,ENE,70,2.0,5.0,29,0.00,,OVC055,0.01,VWS V14.01,2013-03-08 17:55:00,
2013-03-08 13:00:00,54.2,23.5,30.32,ESE,103,2.0,2.0,30,0.00,,OVC055,0.01,VWS V14.01,2013-03-08 18:00:00,
2013-03-08 13:05:00,54.3,22.7,30.32,East,88,1.0,3.0,29,0.00,,OVC055,0.01,VWS V14.01,2013-03-08 18:05:00,
2013-03-08 13:10:00,54.2,21.8,30.32,East,92,0.0,5.0,28,0.00,,OVC055,0.01,VWS V14.01,2013-03-08 18:10:00,
2013-03-08 13:15:00,54.1,23.4,30.32,East,84,1.0,5.0,30,0.00,,OVC055,0.01,VWS V14.01,2013-03-08 18:15:00,
2013-03-08 13:20:00,53.6,22.1,30.32,SSE,149,2.0,5.0,29,0.00,,OVC055,0.01,VWS V14.01,2013-03-08 18:20:00,
2013-03-08 13:25:00,53.7,24.6,30.32,NE,55,2.0,5.0,32,0.00,,OVC055,0.01,VWS V14.01,2013-03-08 18:25:00,
2013-03-08 13:30:00,53.4,24.3,30.32,NE,55,2.0,3.0,32,0.00,,OVC055,0.01,VWS V14.01,2013-03-08 18:30:00,
2013-03-08 13:35:00,53.8,21.5,30.32,ENE,69,2.0,3.0,28,0.00,,OVC055,0.01,VWS V14.01,2013-03-08 18:35:00,
2013-03-08 13:40:00,54.1,21.7,30.31,ENE,61,3.0,3.0,28,0.00,,OVC055,0.01,VWS V14.01,2013-03-08 18:40:00,
2013-03-08 13:45:00,54.5,22.9,30.31,ENE,59,3.0,4.0,29,0.00,,OVC055,0.01,VWS V14.01,2013-03-08 18:45:00,
2013-03-08 13:50:00,54.4,21.1,30.32,South,181,1.0,4.0,27,0.00,,OVC055,0.01,VWS V14.01,2013-03-08 18:50:00,
2013-03-08 13:55:00,54.6,22.2,30.31,East,83,1.0,6.0,28,0.00,,OVC055,0.01,VWS V14.01,2013-03-08 18:55:00,
2013-03-08 14:00:00,54.9,21.6,30.31,ENE,59,3.0,3.0,27,0.00,,OVC055,0.01,VWS V14.01,2013-03-08 19:00:00,
2013-03-08 14:05:00,55.0,25.7,30.31,NE,51,5.0,5.0,32,0.00,,OVC055,0.01,VWS V14.01,2013-03-08 19:05:00,
2013-03-08 14:10:00,54.5,19.4,30.31,NE,40,4.0,7.0,25,0.00,,OVC055,0.01,VWS V14.01,2013-03-08 19:10:00,
2013-03-08 14:15:00,54.4,21.1,30.31,NNE,22,1.0,7.0,27,0.00,,OVC055,0.01,VWS V14.01,2013-03-08 19:15:00,
2013-03-08 14:20:00,54.9,20.7,30.31,NNE,22,3.0,7.0,26,0.00,,OVC055,0.01,VWS V14.01,2013-03-08 19:20:00,
2013-03-08 14:25:00,55.0,21.6,30.31,NNE,28,3.0,7.0,27,0.00,,OVC055,0.01,VWS V14.01,2013-03-08 19:25:00,
2013-03-08 14:30:00,55.6,19.4,30.30,North,9,3.0,4.0,24,0.00,,OVC055,0.01,VWS V14.01,2013-03-08 19:30:00,
2013-03-08 14:35:00,55.6,18.4,30.30,North,355,0.0,4.0,23,0.00,,OVC055,0.01,VWS V14.01,2013-03-08 19:35:00,
2013-03-08 14:40:00,55.7,20.4,30.30,North,351,3.0,4.0,25,0.00,,OVC055,0.01,VWS V14.01,2013-03-08 19:40:00,
2013-03-08 14:45:00,55.8,21.5,30.30,NE,49,2.0,5.0,26,0.00,,OVC055,0.01,VWS V14.01,2013-03-08 19:45:00,
2013-03-08 14:50:00,56.0,19.7,30.30,NE,44,3.0,5.0,24,0.00,,OVC055,0.01,VWS V14.01,2013-03-08 19:50:00,
2013-03-08 14:55:00,56.0,22.5,30.30,NE,38,3.0,6.0,27,0.00,,OVC055,0.01,VWS V14.01,2013-03-08 19:55:00,
2013-03-08 15:00:00,56.5,22.9,30.30,ENE,74,2.0,2.0,27,0.00,,OVC055,0.01,VWS V14.01,2013-03-08 20:00:00,
2013-03-08 15:05:00,56.8,21.4,30.30,NE,42,4.0,4.0,25,0.00,,OVC055,0.01,VWS V14.01,2013-03-08 20:05:00,
2013-03-08 15:10:00,56.2,18.9,30.30,NE,47,2.0,6.0,23,0.00,,OVC055,0.01,VWS V14.01,2013-03-08 20:10:00,
2013-03-08 15:15:00,56.4,23.7,30.30,NE,44,5.0,6.0,28,0.00,,OVC055,0.01,VWS V14.01,2013-03-08 20:15:00,
2013-03-08 15:20:00,56.4,21.0,30.30,NE,48,2.0,6.0,25,0.00,,OVC055,0.01,VWS V14.01,2013-03-08 20:20:00,
2013-03-08 15:25:00,56.8,20.4,30.29,NE,39,2.0,6.0,24,0.00,,OVC055,0.01,VWS V14.01,2013-03-08 20:25:00,
2013-03-08 15:30:00,57.1,21.6,30.29,NE,39,2.0,2.0,25,0.00,,OVC055,0.01,VWS V14.01,2013-03-08 20:30:00,
2013-03-08 15:35:00,57.6,23.0,30.28,ENE,58,2.0,5.0,26,0.00,,OVC055,0.01,VWS V14.01,2013-03-08 20:35:00,
2013-03-08 15:40:00,57.6,23.0,30.28,ENE,61,2.0,5.0,26,0.00,,OVC055,0.01,VWS V14.01,2013-03-08 20:40:00,
2013-03-08 15:45:00,57.0,19.6,30.28,NE,53,4.0,7.0,23,0.00,,OVC055,0.01,VWS V14.01,2013-03-08 20:45:00,
2013-03-08 15:50:00,56.6,21.2,30.28,ENE,69,4.0,7.0,25,0.00,,OVC055,0.01,VWS V14.01,2013-03-08 20:50:00,
2013-03-08 15:55:00,56.4,22.9,30.28,ENE,69,2.0,7.0,27,0.00,,OVC055,0.01,VWS V14.01,2013-03-08 20:55:00,
2013-03-08 16:00:00,56.1,20.8,30.28,ENE,76,4.0,5.0,25,0.00,,OVC055,0.01,VWS V14.01,2013-03-08 21:00:00,
2013-03-08 16:05:00,56.2,24.4,30.27,ENE,57,4.0,9.0,29,0.00,,OVC055,0.01,VWS V14.01,2013-03-08 21:05:00,
2013-03-08 16:10:00,56.0,21.6,30.27,NE,54,5.0,9.0,26,0.00,,OVC055,0.01,VWS V14.01,2013-03-08 21:10:00,
2013-03-08 16:15:00,55.6,19.4,30.27,NE,55,5.0,9.0,24,0.00,,OVC055,0.01,VWS V14.01,2013-03-08 21:15:00,
2013-03-08 16:20:00,55.5,23.0,30.28,ENE,63,3.0,9.0,28,0.00,,OVC055,0.01,VWS V14.01,2013-03-08 21:20:00,
2013-03-08 16:25:00,55.5,21.2,30.28,ENE,74,2.0,9.0,26,0.00,,OVC055,0.01,VWS V14.01,2013-03-08 21:25:00,
2013-03-08 16:30:00,55.5,23.0,30.27,ENE,72,0.0,2.0,28,0.00,,OVC055,0.01,VWS V14.01,2013-03-08 21:30:00,
2013-03-08 16:35:00,55.5,22.1,30.28,East,85,2.0,5.0,27,0.00,,OVC055,0.01,VWS V14.01,2013-03-08 21:35:00,
2013-03-08 16:40:00,55.1,22.6,30.28,East,88,1.0,5.0,28,0.00,,OVC055,0.01,VWS V14.01,2013-03-08 21:40:00,
2013-03-08 16:45:00,54.7,22.3,30.28,ENE,68,1.0,5.0,28,0.00,,OVC055,0.01,VWS V14.01,2013-03-08 21:45:00,
2013-03-08 16:50:00,54.3,22.7,30.28,ENE,74,0.0,5.0,29,0.00,,OVC055,0.01,VWS V14.01,2013-03-08 21:50:00,
2013-03-08 16:55:00,53.9,24.0,30.28,ENE,74,0.0,5.0,31,0.00,,OVC055,0.01,VWS V14.01,2013-03-08 21:55:00,
2013-03-08 17:00:00,53.5,23.6,30.28,ENE,74,0.0,0.0,31,0.00,,OVC055,0.01,VWS V14.01,2013-03-08 22:00:00,
2013-03-08 17:05:00,53.1,22.5,30.28,ENE,74,0.0,2.0,30,0.00,,OVC055,0.01,VWS V14.01,2013-03-08 22:05:00,
2013-03-08 17:10:00,52.8,23.0,30.29,ENE,74,0.0,2.0,31,0.00,,OVC055,0.01,VWS V14.01,2013-03-08 22:10:00,
2013-03-08 17:15:00,52.5,21.2,30.29,ENE,74,0.0,2.0,29,0.00,,OVC055,0.01,VWS V14.01,2013-03-08 22:15:00,
2013-03-08 17:20:00,52.2,22.5,30.29,SE,136,0.0,2.0,31,0.00,,OVC055,0.01,VWS V14.01,2013-03-08 22:20:00,
2013-03-08 17:25:00,51.8,21.4,30.29,SE,136,1.0,2.0,30,0.00,,OVC055,0.01,VWS V14.01,2013-03-08 22:25:00,
2013-03-08 17:30:00,51.4,21.0,30.30,East,92,0.0,1.0,30,0.00,,OVC055,0.01,VWS V14.01,2013-03-08 22:30:00,
2013-03-08 17:35:00,51.1,21.5,30.30,ENE,59,3.0,3.0,31,0.00,,OVC055,0.01,VWS V14.01,2013-03-08 22:35:00,
2013-03-08 17:40:00,51.0,20.7,30.30,ENE,61,4.0,6.0,30,0.00,,OVC055,0.01,VWS V14.01,2013-03-08 22:40:00,
2013-03-08 17:45:00,51.0,20.7,30.29,NE,54,2.0,6.0,30,0.00,,OVC055,0.01,VWS V14.01,2013-03-08 22:45:00,
2013-03-08 17:50:00,50.9,19.8,30.30,NE,40,5.0,8.0,29,0.00,,OVC055,0.01,VWS V14.01,2013-03-08 22:50:00,
2013-03-08 17:55:00,50.9,18.1,30.30,NE,49,6.0,10.0,27,0.00,,OVC055,0.01,VWS V14.01,2013-03-08 22:55:00,
2013-03-08 18:00:00,50.8,18.9,30.30,ENE,60,5.0,5.0,28,0.00,,OVC055,0.01,VWS V14.01,2013-03-08 23:00:00,
2013-03-08 18:05:00,50.4,17.7,30.30,ENE,58,5.0,10.0,27,0.00,,OVC055,0.01,VWS V14.01,2013-03-08 23:05:00,
2013-03-08 18:10:00,50.3,17.6,30.30,NE,40,6.0,10.0,27,0.00,,OVC055,0.01,VWS V14.01,2013-03-08 23:10:00,
2013-03-08 18:15:00,50.1,17.4,30.30,NE,40,7.0,10.0,27,0.00,,OVC055,0.01,VWS V14.01,2013-03-08 23:15:00,
2013-03-08 18:20:00,49.9,15.5,30.30,NE,44,8.0,10.0,25,0.00,,OVC055,0.01,VWS V14.01,2013-03-08 23:20:00,
2013-03-08 18:25:00,49.9,16.4,30.31,NE,43,5.0,10.0,26,0.00,,OVC055,0.01,VWS V14.01,2013-03-08 23:25:00,
2013-03-08 18:30:00,49.6,16.1,30.31,NE,51,8.0,8.0,26,0.00,,OVC055,0.01,VWS V14.01,2013-03-08 23:30:00,
2013-03-08 18:35:00,49.6,15.2,30.31,ENE,58,7.0,10.0,25,0.00,,OVC055,0.01,VWS V14.01,2013-03-08 23:35:00,
2013-03-08 18:40:00,49.5,15.1,30.31,ENE,71,8.0,10.0,25,0.00,,OVC055,0.01,VWS V14.01,2013-03-08 23:40:00,
2013-03-08 18:45:00,49.1,15.7,30.31,ENE,60,7.0,10.0,26,0.00,,OVC055,0.01,VWS V14.01,2013-03-08 23:45:00,
2013-03-08 18:50:00,48.9,16.4,30.31,ENE,61,3.0,10.0,27,0.00,,OVC055,0.01,VWS V14.01,2013-03-08 23:50:00,
2013-03-08 18:55:00,48.5,16.1,30.32,ENE,61,0.0,10.0,27,0.00,,OVC055,0.01,VWS V14.01,2013-03-08 23:55:00,
2013-03-08 19:00:00,47.8,17.1,30.32,ENE,61,0.0,0.0,29,0.00,,OVC055,0.01,VWS V14.01,2013-03-09 00:00:00,
2013-03-08 19:05:00,46.9,17.1,30.32,SSE,155,0.0,1.0,30,0.00,,OVC055,0.01,VWS V14.01,2013-03-09 00:05:00,
2013-03-08 19:10:00,46.8,17.0,30.32,NE,55,0.0,6.0,30,0.00,,OVC055,0.01,VWS V14.01,2013-03-09 00:10:00,
2013-03-08 19:15:00,46.8,17.8,30.32,NNW,327,2.0,6.0,31,0.00,,OVC055,0.01,VWS V14.01,2013-03-09 00:15:00,
2013-03-08 19:20:00,46.2,17.2,30.33,NE,49,3.0,6.0,31,0.00,,OVC055,0.01,VWS V14.01,2013-03-09 00:20:00,
2013-03-08 19:25:00,46.0,16.3,30.33,NNW,332,0.0,6.0,30,0.00,,OVC055,0.01,VWS V14.01,2013-03-09 00:25:00,
2013-03-08 19:30:00,45.6,15.2,30.33,NNW,332,0.0,0.0,29,0.00,,OVC055,0.01,VWS V14.01,2013-03-09 00:30:00,
2013-03-08 19:35:00,45.4,15.8,30.33,NNW,332,0.0,0.0,30,0.00,,OVC055,0.01,VWS V14.01,2013-03-09 00:35:00,
2013-03-08 19:40:00,45.0,15.4,30.33,NNW,332,0.0,1.0,30,0.00,,OVC055,0.01,VWS V14.01,2013-03-09 00:40:00,
2013-03-08 19:45:00,44.6,15.9,30.33,NNW,332,1.0,1.0,31,0.00,,OVC055,0.01,VWS V14.01,2013-03-09 00:45:00,
2013-03-08 19:49:00,43.9,15.2,30.34,NNW,332,0.0,2.0,31,0.00,,OVC055,0.01,VWS V14.01,2013-03-09 00:49:00,
2013-03-08 19:54:00,43.4,15.5,30.34,NNW,332,0.0,2.0,32,0.00,,OVC055,0.01,VWS V14.01,2013-03-09 00:54:00,
2013-03-08 19:59:00,43.3,18.2,30.34,NNW,332,0.0,0.0,36,0.00,,OVC055,0.01,VWS V14.01,2013-03-09 00:59:00,
2013-03-08 20:00:00,38.8,21.8,30.36,NNW,330,0.0,1.0,50,0.00,,OVC055,0.01,VWS V14.01,2013-03-09 01:00:00,
2013-03-08 20:04:00,42.6,18.8,30.35,NNW,332,1.0,1.0,38,0.00,,OVC055,0.01,VWS V14.01,2013-03-09 01:04:00,
2013-03-08 20:09:00,41.8,16.8,30.35,NNW,332,0.0,1.0,36,0.00,,OVC055,0.01,VWS V14.01,2013-03-09 01:09:00,
2013-03-08 20:14:00,41.3,17.6,30.35,NNW,336,0.0,3.0,38,0.00,,OVC055,0.01,VWS V14.01,2013-03-09 01:14:00,
2013-03-08 20:19:00,41.4,18.3,30.35,NNW,336,2.0,3.0,39,0.00,,OVC055,0.01,VWS V14.01,2013-03-09 01:19:00,
2013-03-08 20:24:00,41.4,18.9,30.36,NNW,330,0.0,3.0,40,0.00,,OVC055,0.01,VWS V14.01,2013-03-09 01:24:00,
2013-03-08 20:29:00,41.1,18.6,30.37,NNW,330,0.0,0.0,40,0.00,,OVC055,0.01,VWS V14.01,2013-03-09 01:29:00,
2013-03-08 20:30:00,39.4,22.8,30.36,North,355,3.0,6.0,51,0.00,,OVC055,0.01,VWS V14.01,2013-03-09 01:30:00,
2013-03-08 20:34:00,40.7,18.9,30.37,NNW,330,0.0,0.0,41,0.00,,OVC055,0.01,VWS V14.01,2013-03-09 01:34:00,
2013-03-08 20:39:00,40.4,19.7,30.37,NNW,330,0.0,0.0,43,0.00,,OVC055,0.01,VWS V14.01,2013-03-09 01:39:00,
2013-03-08 20:44:00,39.8,21.7,30.36,NNW,330,0.0,1.0,48,0.00,,OVC055,0.01,VWS V14.01,2013-03-09 01:44:00,
2013-03-08 20:49:00,39.2,20.7,30.36,NNW,330,0.0,1.0,47,0.00,,OVC055,0.01,VWS V14.01,2013-03-09 01:49:00,
2013-03-08 20:54:00,38.9,20.9,30.36,NNW,330,0.0,1.0,48,0.00,,OVC055,0.01,VWS V14.01,2013-03-09 01:54:00,
2013-03-08 20:59:00,38.9,21.9,30.36,NNW,330,0.0,0.0,50,0.00,,OVC055,0.01,VWS V14.01,2013-03-09 01:59:00,
2013-03-08 21:00:00,37.3,23.1,30.36,NNW,345,1.0,3.0,56,0.00,,OVC055,0.01,VWS V14.01,2013-03-09 02:00:00,
2013-03-08 21:04:00,38.8,21.8,30.36,NNW,330,2.0,3.0,50,0.00,,OVC055,0.01,VWS V14.01,2013-03-09 02:04:00,
2013-03-08 21:09:00,39.0,22.4,30.36,NW,306,3.0,6.0,51,0.00,,OVC055,0.01,VWS V14.01,2013-03-09 02:09:00,
2013-03-08 21:14:00,39.3,22.7,30.36,North,350,4.0,6.0,51,0.00,,OVC055,0.01,VWS V14.01,2013-03-09 02:14:00,
2013-03-08 21:19:00,39.4,22.8,30.36,North,360,6.0,6.0,51,0.00,,OVC055,0.01,VWS V14.01,2013-03-09 02:19:00,
2013-03-08 21:24:00,39.4,22.8,30.36,NNW,347,3.0,6.0,51,0.00,,OVC055,0.01,VWS V14.01,2013-03-09 02:24:00,
2013-03-08 21:29:00,39.4,22.8,30.36,North,355,2.0,3.0,51,0.00,,OVC055,0.01,VWS V14.01,2013-03-09 02:29:00,
2013-03-08 21:30:00,36.3,23.0,30.36,NNW,345,1.0,2.0,58,0.00,,OVC055,0.01,VWS V14.01,2013-03-09 02:30:00,
2013-03-08 21:34:00,39.3,23.2,30.36,North,355,1.0,3.0,52,0.00,,OVC055,0.01,VWS V14.01,2013-03-09 02:34:00,
2013-03-08 21:39:00,38.8,22.7,30.36,North,350,1.0,3.0,52,0.00,,OVC055,0.01,VWS V14.01,2013-03-09 02:39:00,
2013-03-08 21:44:00,38.3,22.7,30.36,North,350,0.0,3.0,53,0.00,,OVC055,0.01,VWS V14.01,2013-03-09 02:44:00,
2013-03-08 21:49:00,37.9,22.8,30.36,NNW,345,2.0,3.0,54,0.00,,OVC055,0.01,VWS V14.01,2013-03-09 02:49:00,
2013-03-08 21:54:00,37.5,22.8,30.36,NNW,345,1.0,3.0,55,0.00,,OVC055,0.01,VWS V14.01,2013-03-09 02:54:00,
2013-03-08 21:59:00,37.3,23.1,30.36,NNW,345,0.0,1.0,56,0.00,,OVC055,0.01,VWS V14.01,2013-03-09 02:59:00,
2013-03-08 22:00:00,33.0,22.9,30.37,NNW,345,1.0,2.0,66,0.00,,OVC055,0.01,VWS V14.01,2013-03-09 03:00:00,
2013-03-08 22:04:00,37.3,23.5,30.36,NNW,345,0.0,2.0,57,0.00,,OVC055,0.01,VWS V14.01,2013-03-09 03:04:00,
2013-03-08 22:09:00,37.2,23.4,30.36,NNW,345,0.0,2.0,57,0.00,,OVC055,0.01,VWS V14.01,2013-03-09 03:09:00,
2013-03-08 22:14:00,36.9,23.1,30.36,NNW,345,0.0,2.0,57,0.00,,OVC055,0.01,VWS V14.01,2013-03-09 03:14:00,
2013-03-08 22:19:00,36.8,23.4,30.36,NNW,345,0.0,2.0,58,0.00,,OVC055,0.01,VWS V14.01,2013-03-09 03:19:00,
2013-03-08 22:24:00,36.6,23.2,30.36,NNW,345,0.0,2.0,58,0.00,,OVC055,0.01,VWS V14.01,2013-03-09 03:24:00,
2013-03-08 22:29:00,36.3,23.4,30.36,NNW,345,1.0,1.0,59,0.00,,OVC055,0.01,VWS V14.01,2013-03-09 03:29:00,
2013-03-08 22:30:00,30.9,24.5,30.37,NNW,345,0.0,1.0,77,0.00,,OVC055,0.01,VWS V14.01,2013-03-09 03:30:00,
2013-03-08 22:34:00,36.0,23.9,30.36,NNW,345,1.0,2.0,61,0.00,,OVC055,0.01,VWS V14.01,2013-03-09 03:34:00,
2013-03-08 22:39:00,35.1,23.0,30.36,NNW,345,1.0,2.0,61,0.00,,OVC055,0.01,VWS V14.01,2013-03-09 03:39:00,
2013-03-08 22:44:00,34.4,23.1,30.36,NNW,345,0.0,2.0,63,0.00,,OVC055,0.01,VWS V14.01,2013-03-09 03:44:00,
2013-03-08 22:49:00,34.0,23.5,30.36,NNW,345,0.0,2.0,65,0.00,,OVC055,0.01,VWS V14.01,2013-03-09 03:49:00,
2013-03-08 22:54:00,33.5,23.4,30.36,NNW,345,0.0,2.0,66,0.00,,OVC055,0.01,VWS V14.01,2013-03-09 03:54:00,
2013-03-08 22:59:00,33.0,22.9,30.37,NNW,345,0.0,1.0,66,0.00,,OVC055,0.01,VWS V14.01,2013-03-09 03:59:00,
2013-03-08 23:00:00,29.6,23.0,30.37,NNW,345,0.0,2.0,76,0.00,,OVC055,0.01,VWS V14.01,2013-03-09 04:00:00,
2013-03-08 23:04:00,32.4,23.0,30.36,NNW,345,0.0,1.0,68,0.00,,OVC055,0.01,VWS V14.01,2013-03-09 04:04:00,
2013-03-08 23:09:00,32.0,23.0,30.37,NNW,345,0.0,1.0,69,0.00,,OVC055,0.01,VWS V14.01,2013-03-09 04:09:00,
2013-03-08 23:14:00,31.7,23.0,30.37,NNW,345,0.0,1.0,70,0.00,,OVC055,0.01,VWS V14.01,2013-03-09 04:14:00,
2013-03-08 23:19:00,31.2,22.9,30.37,NNW,345,0.0,1.0,71,0.00,,OVC055,0.01,VWS V14.01,2013-03-09 04:19:00,
2013-03-08 23:24:00,30.9,22.3,30.37,NNW,345,0.0,1.0,70,0.00,,OVC055,0.01,VWS V14.01,2013-03-09 04:24:00,
2013-03-08 23:29:00,30.9,24.5,30.37,NNW,345,0.0,0.0,77,0.00,,OVC055,0.01,VWS V14.01,2013-03-09 04:29:00,
2013-03-08 23:30:00,29.1,23.4,30.37,NNW,345,0.0,0.0,79,0.00,,OVC055,0.00,VWS V14.01,2013-03-09 04:30:00,
2013-03-08 23:34:00,30.7,24.4,30.37,NNW,345,0.0,1.0,77,0.00,,OVC055,0.01,VWS V14.01,2013-03-09 04:34:00,
2013-03-08 23:39:00,30.4,24.1,30.37,NNW,345,0.0,2.0,77,0.00,,OVC055,0.01,VWS V14.01,2013-03-09 04:39:00,
2013-03-08 23:44:00,30.3,23.7,30.37,NNW,345,0.0,2.0,76,0.00,,OVC055,0.01,VWS V14.01,2013-03-09 04:44:00,
2013-03-08 23:49:00,30.1,23.8,30.37,NNW,345,0.0,2.0,77,0.00,,OVC055,0.01,VWS V14.01,2013-03-09 04:49:00,
2013-03-08 23:54:00,29.8,23.2,30.37,NNW,345,0.0,2.0,76,0.00,,OVC055,0.01,VWS V14.01,2013-03-09 04:54:00,
2013-03-08 23:59:00,29.6,23.0,30.37,NNW,345,0.0,0.0,76,0.00,,OVC055,0.00,VWS V14.01,2013-03-09 04:59:00,